Portada
METAR-TAF:

METAR-TAF

Aeroports :

Wakefield Municipal Airport

Wakefield, Virgínia, Estats Units d'Amèrica

latitud: 36-58-53N, longitud: 077-00-04W, altitud: 34 m

Observació

L'informe es va fer fa 25 minuts, a les 12:35 UTC
Vent 3 kt del Oest/Sud-Oest
Temperatura 7°C
Humitat 93%
Pressió 1011 hPa
Visibilitat: 2.4 km
Cel cobert a una alçada de 300 ft
boirina

METAR: KAKQ 191235Z AUTO 25003KT 1 1/2SM BR OVC003 07/06 A2986 RMK AO2 T00670056

Hora: 08:00 (13:00 UTC)


TAF: manca

Observacions i pronòstics meteorològics de més de 4000 aeroports (METAR i TAF).

Les estacions disponibles són els punts grocs i vermells al mapa.

Posi el ratolí al punt desitjat per veure el nom de l'estació.

Feu clic per veure les observacions i els pronòstics meteorològics.

Per canviar el mapa: feu clic els botons verds amb una creu de color negre per apropar; al botó verd amb un guió per allunyar la imatge; o en les fletxes verdes per a mapes adjacents.


METAR-TAF: